TimeCDT,TemperatureF,Dew PointF,Humidity,Sea Level PressureIn,VisibilityMPH,Wind Direction,Wind SpeedMPH,Gust SpeedMPH,PrecipitationIn,Events,Conditions,WindDirDegrees,DateUTC
12:15 AM,67.6,50.0,53,29.57,10.0,SSE,20.7,32.2,N/A,,Clear,150,2013-09-26 05:15:00
12:35 AM,67.3,50.0,54,29.57,10.0,SSE,19.6,27.6,N/A,,Clear,150,2013-09-26 05:35:00
12:55 AM,67.1,50.0,54,29.56,10.0,SSE,20.7,26.5,N/A,,Clear,150,2013-09-26 05:55:00
1:15 AM,67.1,49.6,53,29.55,10.0,SSE,23.0,32.2,N/A,,Clear,150,2013-09-26 06:15:00
1:35 AM,67.1,49.5,53,29.55,10.0,SSE,21.9,29.9,N/A,,Clear,150,2013-09-26 06:35:00
1:55 AM,66.7,49.5,54,29.54,10.0,SSE,20.7,27.6,N/A,,Clear,150,2013-09-26 06:55:00
2:15 AM,66.4,49.3,54,29.55,10.0,SSE,19.6,31.1,N/A,,Clear,150,2013-09-26 07:15:00
2:35 AM,66.0,49.3,55,29.54,10.0,SSE,19.6,26.5,N/A,,Clear,160,2013-09-26 07:35:00
2:55 AM,66.2,49.1,54,29.55,10.0,SSE,21.9,26.5,N/A,,Clear,160,2013-09-26 07:55:00
3:15 AM,65.7,49.1,55,29.55,10.0,SSE,19.6,28.8,N/A,,Clear,160,2013-09-26 08:15:00
3:35 AM,65.3,49.1,56,29.55,10.0,SSE,20.7,27.6,N/A,,Clear,160,2013-09-26 08:35:00
3:55 AM,64.9,49.1,56,29.54,10.0,SSE,20.7,26.5,N/A,,Clear,160,2013-09-26 08:55:00
4:15 AM,64.8,48.9,56,29.55,10.0,South,19.6,27.6,N/A,,Clear,170,2013-09-26 09:15:00
4:35 AM,64.4,48.7,57,29.56,10.0,South,15.0,21.9,N/A,,Clear,180,2013-09-26 09:35:00
4:55 AM,64.0,48.7,57,29.56,10.0,South,16.1,21.9,N/A,,Clear,170,2013-09-26 09:55:00
5:15 AM,63.5,48.6,58,29.58,10.0,South,5.8,-,N/A,,Clear,180,2013-09-26 10:15:00
5:35 AM,62.1,48.6,61,29.59,10.0,South,8.1,-,N/A,,Clear,170,2013-09-26 10:35:00
5:55 AM,61.5,48.6,62,29.59,10.0,South,9.2,-,N/A,,Clear,170,2013-09-26 10:55:00
6:15 AM,60.1,48.4,65,29.60,10.0,South,6.9,-,N/A,,Clear,180,2013-09-26 11:15:00
6:35 AM,58.5,48.2,69,29.62,10.0,SSW,3.5,-,N/A,,Clear,200,2013-09-26 11:35:00
6:55 AM,54.9,47.5,76,29.63,10.0,Calm,Calm,-,N/A,,Clear,0,2013-09-26 11:55:00
7:15 AM,53.8,47.3,79,29.65,10.0,West,4.6,-,N/A,,Clear,270,2013-09-26 12:15:00
7:35 AM,52.5,46.4,80,29.66,10.0,West,4.6,-,N/A,,Clear,270,2013-09-26 12:35:00
7:55 AM,53.2,47.5,81,29.66,10.0,Calm,Calm,-,N/A,,Clear,0,2013-09-26 12:55:00
8:15 AM,52.7,47.3,82,29.67,10.0,Calm,Calm,-,N/A,,Clear,0,2013-09-26 13:15:00
8:35 AM,54.9,47.8,77,29.68,10.0,NW,4.6,-,N/A,,Clear,310,2013-09-26 13:35:00
8:55 AM,55.6,48.6,77,29.69,10.0,NW,5.8,-,N/A,,Clear,310,2013-09-26 13:55:00
9:15 AM,57.6,49.6,75,29.69,10.0,NNW,4.6,-,N/A,,Clear,330,2013-09-26 14:15:00
9:35 AM,59.2,50.2,72,29.69,10.0,NW,4.6,-,N/A,,Clear,310,2013-09-26 14:35:00
9:55 AM,61.0,50.5,68,29.69,10.0,NNW,5.8,-,N/A,,Clear,330,2013-09-26 14:55:00
10:15 AM,63.7,50.9,63,29.71,10.0,NNW,6.9,-,N/A,,Clear,340,2013-09-26 15:15:00
10:35 AM,64.8,50.9,61,29.71,10.0,NNW,6.9,-,N/A,,Clear,330,2013-09-26 15:35:00
10:55 AM,66.4,51.3,58,29.72,10.0,North,8.1,-,N/A,,Clear,350,2013-09-26 15:55:00
11:15 AM,67.3,51.8,58,29.72,10.0,NNW,8.1,-,N/A,,Clear,340,2013-09-26 16:15:00
11:35 AM,68.0,51.4,55,29.72,10.0,North,10.4,-,N/A,,Clear,350,2013-09-26 16:35:00
11:55 AM,69.3,51.6,53,29.72,10.0,North,10.4,16.1,N/A,,Clear,10,2013-09-26 16:55:00
12:15 PM,70.5,51.6,51,29.73,10.0,NNE,9.2,-,N/A,,Clear,30,2013-09-26 17:15:00
12:35 PM,71.6,51.8,50,29.72,10.0,North,8.1,-,N/A,,Clear,10,2013-09-26 17:35:00
12:55 PM,72.3,51.8,48,29.73,10.0,NNE,13.8,17.3,N/A,,Clear,30,2013-09-26 17:55:00
1:15 PM,73.6,51.4,46,29.73,10.0,NE,11.5,17.3,N/A,,Clear,40,2013-09-26 18:15:00
1:35 PM,74.1,52.0,46,29.73,10.0,NE,13.8,17.3,N/A,,Clear,40,2013-09-26 18:35:00
1:55 PM,74.1,51.6,45,29.72,10.0,NE,11.5,18.4,N/A,,Clear,50,2013-09-26 18:55:00
2:15 PM,75.0,52.2,45,29.72,10.0,NNE,12.7,18.4,N/A,,Clear,30,2013-09-26 19:15:00
2:35 PM,75.4,51.8,44,29.73,10.0,North,5.8,18.4,N/A,,Clear,10,2013-09-26 19:35:00
2:55 PM,76.3,51.8,42,29.72,10.0,NE,6.9,16.1,N/A,,Clear,40,2013-09-26 19:55:00
3:15 PM,77.0,51.3,40,29.72,10.0,NNE,9.2,-,N/A,,Clear,20,2013-09-26 20:15:00
3:35 PM,77.4,51.3,40,29.71,10.0,NNE,8.1,-,N/A,,Clear,20,2013-09-26 20:35:00
3:55 PM,78.3,50.7,38,29.71,10.0,NE,8.1,16.1,N/A,,Clear,40,2013-09-26 20:55:00
4:15 PM,79.0,50.7,37,29.71,10.0,ENE,8.1,-,N/A,,Clear,60,2013-09-26 21:15:00
4:35 PM,79.0,50.9,37,29.71,10.0,NNE,10.4,17.3,N/A,,Clear,30,2013-09-26 21:35:00
4:55 PM,80.8,50.5,35,29.71,10.0,ESE,8.1,-,N/A,,Clear,120,2013-09-26 21:55:00
5:15 PM,80.1,51.4,37,29.71,10.0,ENE,4.6,-,N/A,,Clear,60,2013-09-26 22:15:00
5:35 PM,80.6,52.0,37,29.71,10.0,ENE,8.1,-,N/A,,Clear,60,2013-09-26 22:35:00
5:55 PM,80.1,52.2,38,29.71,10.0,ENE,5.8,-,N/A,,Clear,60,2013-09-26 22:55:00
6:15 PM,79.5,52.7,39,29.71,10.0,ENE,4.6,-,N/A,,Clear,60,2013-09-26 23:15:00
6:35 PM,78.8,53.8,42,29.70,10.0,NE,5.8,-,N/A,,Clear,50,2013-09-26 23:35:00
6:55 PM,76.6,54.9,47,29.69,10.0,NE,4.6,-,N/A,,Clear,40,2013-09-26 23:55:00
7:15 PM,75.0,54.1,48,29.69,10.0,NNE,5.8,-,N/A,,Clear,30,2013-09-27 00:15:00
7:35 PM,72.3,53.6,52,29.70,10.0,NNE,8.1,-,N/A,,Clear,20,2013-09-27 00:35:00
7:55 PM,71.1,52.9,53,29.69,10.0,NNE,9.2,-,N/A,,Clear,20,2013-09-27 00:55:00
8:15 PM,69.8,52.9,55,29.69,10.0,NNE,8.1,-,N/A,,Clear,30,2013-09-27 01:15:00
8:35 PM,68.5,52.9,57,29.70,10.0,NNE,6.9,-,N/A,,Clear,20,2013-09-27 01:35:00
8:55 PM,67.1,52.7,60,29.72,10.0,NNE,8.1,-,N/A,,Clear,30,2013-09-27 01:55:00
9:15 PM,66.4,52.3,61,29.72,10.0,NE,8.1,-,N/A,,Clear,50,2013-09-27 02:15:00
9:35 PM,65.8,52.3,62,29.71,10.0,NE,9.2,-,N/A,,Clear,40,2013-09-27 02:35:00
9:55 PM,66.2,52.2,61,29.71,10.0,NNE,11.5,17.3,N/A,,Clear,30,2013-09-27 02:55:00
10:15 PM,64.4,52.0,64,29.72,10.0,NNE,9.2,-,N/A,,Clear,20,2013-09-27 03:15:00
10:35 PM,64.0,51.8,64,29.71,10.0,NNE,12.7,19.6,N/A,,Clear,20,2013-09-27 03:35:00
10:55 PM,63.7,51.3,64,29.71,10.0,NNE,11.5,19.6,N/A,,Clear,30,2013-09-27 03:55:00
11:15 PM,63.0,50.9,65,29.71,10.0,NE,11.5,-,N/A,,Clear,40,2013-09-27 04:15:00
11:35 PM,62.6,50.7,65,29.71,10.0,NNE,11.5,16.1,N/A,,Clear,20,2013-09-27 04:35:00
11:55 PM,61.9,50.2,65,29.71,10.0,NE,6.9,-,N/A,,Clear,40,2013-09-27 04:55:00